createdAt,value
2023-05-12T04:07:08.614Z,100.00
2023-05-12T04:10:11.447Z,100.00
2023-05-12T04:13:14.587Z,100.00
2023-05-12T04:16:17.138Z,94.37
2023-05-12T04:19:20.178Z,89.20
2023-05-12T04:22:25.757Z,84.28
2023-05-12T04:25:28.477Z,83.36
2023-05-12T04:28:31.208Z,80.12
2023-05-12T04:31:33.807Z,78.61
2023-05-12T04:34:36.836Z,75.85
2023-05-12T04:37:40.806Z,74.28
2023-05-12T04:40:43.324Z,72.75
2023-05-12T04:46:53.500Z,70.35
2023-05-12T04:49:56.039Z,67.71
2023-05-12T04:52:59.853Z,64.93
2023-05-12T04:56:02.354Z,63.89
2023-05-12T04:59:04.864Z,64.80
2023-05-12T05:02:07.510Z,62.86
2023-05-12T05:05:10.843Z,63.38
2023-05-12T05:08:14.673Z,63.42
2023-05-12T05:11:17.153Z,62.95
2023-05-12T05:14:19.657Z,61.38
2023-05-12T05:17:22.249Z,61.59
2023-05-12T05:20:28.697Z,62.87
2023-05-12T05:23:33.034Z,64.17
2023-05-12T05:26:35.770Z,67.51
2023-05-12T05:29:38.287Z,72.10
2023-05-12T05:32:40.932Z,76.10
2023-05-12T05:35:43.816Z,76.91
2023-05-12T05:38:47.638Z,76.09
2023-05-12T05:41:50.125Z,76.43
2023-05-12T05:44:52.662Z,76.08
2023-05-12T05:47:55.180Z,73.63
2023-05-12T05:50:57.803Z,72.25
2023-05-12T05:54:01.640Z,71.50
2023-05-12T05:57:04.117Z,73.30
2023-05-12T06:00:09.012Z,69.34
2023-05-12T06:03:11.598Z,70.60
2023-05-12T06:06:14.332Z,69.00
2023-05-12T06:09:18.197Z,67.85
2023-05-12T06:12:20.763Z,65.30
2023-05-12T06:15:23.553Z,66.62
2023-05-12T06:18:26.146Z,67.45
2023-05-12T06:21:28.692Z,65.46
2023-05-12T06:24:32.697Z,61.04
2023-05-12T06:27:35.351Z,61.30
2023-05-12T06:30:38.304Z,62.26
2023-05-12T06:33:40.820Z,60.33
2023-05-12T06:36:43.351Z,60.49
2023-05-12T06:39:47.180Z,59.67
2023-05-12T06:42:49.923Z,58.31
2023-05-12T06:45:52.521Z,58.54
2023-05-12T06:48:55.570Z,57.14
2023-05-12T06:51:58.083Z,56.78
2023-05-12T06:55:01.951Z,56.74
2023-05-12T06:58:04.546Z,57.02
2023-05-12T07:01:07.120Z,57.50
2023-05-12T07:04:09.685Z,54.25
2023-05-12T07:07:12.286Z,55.12
2023-05-12T07:10:16.318Z,55.98
2023-05-12T07:13:19.139Z,56.23
2023-05-12T07:16:21.706Z,55.20
2023-05-12T07:19:24.367Z,54.43
2023-05-12T07:22:26.970Z,53.54
2023-05-12T07:25:31.240Z,55.15
2023-05-12T07:28:36.162Z,58.02
2023-05-12T07:31:38.726Z,59.12
2023-05-12T07:34:41.280Z,53.51
2023-05-12T07:37:43.824Z,55.11
2023-05-12T07:40:47.749Z,52.33
2023-05-12T07:43:50.328Z,49.83
2023-05-12T07:46:52.919Z,49.71
2023-05-12T07:49:55.538Z,50.62
2023-05-12T07:52:58.055Z,48.03
2023-05-12T07:56:02.024Z,51.84
2023-05-12T07:59:04.581Z,52.46
2023-05-12T08:02:08.086Z,51.26
2023-05-12T08:05:11.653Z,48.14
2023-05-12T08:08:16.756Z,52.69
2023-05-12T08:11:20.949Z,49.18
2023-05-12T08:14:25.598Z,55.71
2023-05-12T08:17:29.394Z,48.43
2023-05-12T08:20:32.519Z,50.73
2023-05-12T08:23:37.655Z,49.36
2023-05-12T08:26:41.521Z,47.30
2023-05-12T08:29:44.025Z,47.26
2023-05-12T08:32:46.987Z,47.25
2023-05-12T08:35:49.587Z,48.79
2023-05-12T08:38:52.138Z,47.53
2023-05-12T08:42:09.330Z,41.76
2023-05-12T08:45:12.800Z,40.57
2023-05-12T08:48:18.626Z,41.40
2023-05-12T08:51:22.756Z,41.11
2023-05-12T08:54:28.065Z,41.62
2023-05-12T08:57:32.340Z,39.87
2023-05-12T09:00:37.077Z,39.09
2023-05-12T09:03:39.852Z,41.15
2023-05-12T09:06:42.921Z,42.25
2023-05-12T09:09:47.888Z,39.06
2023-05-12T09:12:55.763Z,39.72
2023-05-12T09:16:01.601Z,37.80
2023-05-12T09:19:06.662Z,38.18
2023-05-12T09:22:14.739Z,38.94
2023-05-12T09:25:18.940Z,38.09
2023-05-12T09:28:23.111Z,37.73
2023-05-12T09:31:26.124Z,38.49
2023-05-12T09:34:30.545Z,37.88
2023-05-12T09:37:34.416Z,37.56
2023-05-12T09:40:37.530Z,38.90
2023-05-12T09:43:47.038Z,37.89
2023-05-12T09:46:49.983Z,36.75
2023-05-12T09:49:53.210Z,36.70
2023-05-12T09:52:55.897Z,38.43
2023-05-12T09:55:58.375Z,39.93
2023-05-12T09:59:05.379Z,37.04
2023-05-12T10:02:11.042Z,36.00
2023-05-12T10:05:17.108Z,35.10
2023-05-12T10:08:25.203Z,35.68
2023-05-12T10:11:30.116Z,36.25
2023-05-12T10:14:35.483Z,35.51
2023-05-12T10:17:38.505Z,33.89
2023-05-12T10:20:42.245Z,34.73
2023-05-12T10:23:45.741Z,36.05
2023-05-12T10:26:48.464Z,34.72
2023-05-12T10:29:53.704Z,35.29
2023-05-12T10:32:57.401Z,33.69
2023-05-12T10:36:00.289Z,35.05
2023-05-12T10:39:06.789Z,33.66
2023-05-12T10:42:10.068Z,32.63
2023-05-12T10:45:18.687Z,34.59
2023-05-12T10:48:21.408Z,33.10
2023-05-12T10:51:26.386Z,33.26
2023-05-12T10:54:28.921Z,34.22
2023-05-12T10:57:33.566Z,33.74
2023-05-12T11:00:46.802Z,34.74
2023-05-12T11:03:51.070Z,35.61
2023-05-12T11:07:01.042Z,35.28
2023-05-12T11:10:06.219Z,33.39
2023-05-12T11:13:10.976Z,36.06
2023-05-12T11:16:14.962Z,34.20
2023-05-12T11:19:19.517Z,35.33
2023-05-12T11:22:23.418Z,37.29
2023-05-12T11:25:27.841Z,37.60
2023-05-12T11:28:30.406Z,39.92
2023-05-12T11:31:35.176Z,39.90
2023-05-12T11:34:37.896Z,39.42
2023-05-12T11:37:42.135Z,37.74
2023-05-12T11:40:45.139Z,36.58
2023-05-12T11:43:47.635Z,36.52
2023-05-12T11:46:59.593Z,35.53
2023-05-12T11:50:04.490Z,35.75
2023-05-12T11:53:12.256Z,35.34
2023-05-12T11:56:19.659Z,36.25
2023-05-12T11:59:30.688Z,34.54
2023-05-12T12:02:35.890Z,32.47
2023-05-12T12:05:39.182Z,33.53
2023-05-12T12:08:50.977Z,32.76
2023-05-12T12:11:53.499Z,33.17
2023-05-12T12:14:59.979Z,33.07
2023-05-12T12:18:03.972Z,32.86
2023-05-12T12:21:06.624Z,32.22
2023-05-12T12:24:09.325Z,33.07
2023-05-12T12:27:11.847Z,33.46
2023-05-12T12:30:15.474Z,35.68
2023-05-12T12:33:20.650Z,33.91
2023-05-12T12:36:23.378Z,34.78
2023-05-12T12:39:25.940Z,34.68
2023-05-12T12:42:28.831Z,33.86
2023-05-12T12:45:31.480Z,32.74
2023-05-12T12:48:35.741Z,32.92
2023-05-12T12:51:45.603Z,32.93
2023-05-12T12:54:49.150Z,33.17
2023-05-12T12:57:51.775Z,34.23
2023-05-12T13:00:54.428Z,31.94
2023-05-12T13:04:00.284Z,31.41
2023-05-12T13:07:02.795Z,31.28
2023-05-12T13:10:06.258Z,32.01
2023-05-12T13:13:11.862Z,32.98
2023-05-12T13:16:14.539Z,32.99
2023-05-12T13:19:18.364Z,33.30
2023-05-12T13:22:21.015Z,33.80
2023-05-12T13:25:23.709Z,32.75
2023-05-12T13:28:26.404Z,32.75
2023-05-12T13:31:29.094Z,32.43
2023-05-12T13:34:33.078Z,32.47
2023-05-12T13:37:35.881Z,34.50
2023-05-12T13:40:38.485Z,33.95
2023-05-12T13:43:40.986Z,31.43
2023-05-12T13:46:43.618Z,32.07
2023-05-12T13:49:47.585Z,33.32
2023-05-12T13:52:50.099Z,34.14
2023-05-12T13:55:52.621Z,33.87
2023-05-12T13:58:55.117Z,31.22
2023-05-12T14:01:57.842Z,32.20
2023-05-12T14:05:01.772Z,33.32
2023-05-12T14:08:04.470Z,33.66
2023-05-12T14:11:07.118Z,31.35
2023-05-12T14:14:09.666Z,31.29
2023-05-12T14:17:12.143Z,31.87
2023-05-12T14:20:16.070Z,30.84
2023-05-12T14:23:18.619Z,31.28
2023-05-12T14:26:21.564Z,31.41
2023-05-12T14:29:24.202Z,30.38
2023-05-12T14:32:27.109Z,32.09
2023-05-12T14:35:31.205Z,31.46
2023-05-12T14:38:33.842Z,32.12
2023-05-12T14:41:36.408Z,33.96
2023-05-12T14:44:38.914Z,33.04
2023-05-12T14:47:41.628Z,31.95
2023-05-12T14:50:45.851Z,32.31
2023-05-12T14:53:48.750Z,32.13
2023-05-12T14:56:51.413Z,31.88
2023-05-12T14:59:58.626Z,35.47
2023-05-12T15:03:01.929Z,35.87
2023-05-12T15:06:07.892Z,33.77
2023-05-12T15:09:10.953Z,35.01
2023-05-12T15:12:13.497Z,37.54
2023-05-12T15:15:16.101Z,34.28
2023-05-12T15:18:18.654Z,33.70
2023-05-12T15:21:23.334Z,34.79
2023-05-12T15:24:26.517Z,33.79
2023-05-12T15:27:29.038Z,34.38
2023-05-12T15:30:31.548Z,35.31
2023-05-12T15:33:34.207Z,34.79
2023-05-12T15:36:38.205Z,35.23
2023-05-12T15:39:40.745Z,34.53
2023-05-12T15:42:43.459Z,34.43
2023-05-12T15:45:46.288Z,35.04
2023-05-12T15:48:49.609Z,35.11
2023-05-12T15:51:53.557Z,36.77
2023-05-12T15:54:56.172Z,35.47
2023-05-12T15:57:58.803Z,35.55
2023-05-12T16:01:01.393Z,34.77
2023-05-12T16:04:03.985Z,34.10
2023-05-12T16:07:07.848Z,34.26
2023-05-12T16:10:11.126Z,34.98
2023-05-12T16:13:14.543Z,35.50
2023-05-12T16:16:17.594Z,34.71
2023-05-12T16:19:20.212Z,34.48
2023-05-12T16:22:24.149Z,35.05
2023-05-12T16:25:26.944Z,34.78
2023-05-12T16:28:29.485Z,35.46
2023-05-12T16:31:32.127Z,35.15
2023-05-12T16:34:34.698Z,35.37
2023-05-12T16:37:38.638Z,36.24
2023-05-12T16:40:41.278Z,36.10
2023-05-12T16:43:43.877Z,36.67
2023-05-12T16:46:46.572Z,36.67
2023-05-12T16:49:53.150Z,36.50
2023-05-12T16:52:57.247Z,36.66
2023-05-12T16:56:06.472Z,36.65
2023-05-12T16:59:09.028Z,36.37
2023-05-12T17:02:11.869Z,37.25
2023-05-12T17:08:20.583Z,36.52
2023-05-12T17:11:24.585Z,36.44
2023-05-12T17:14:27.508Z,37.88
2023-05-12T17:17:30.028Z,38.49
2023-05-12T17:20:33.152Z,38.77
2023-05-12T17:23:37.722Z,37.89
2023-05-12T17:26:40.307Z,39.28
2023-05-12T17:29:42.896Z,38.36
2023-05-12T17:32:45.465Z,39.33
2023-05-12T17:36:03.843Z,39.18
2023-05-12T17:39:15.767Z,39.05
2023-05-12T17:42:18.596Z,39.34
2023-05-12T17:45:21.433Z,39.92
2023-05-12T17:48:26.364Z,40.52
2023-05-12T17:51:29.834Z,40.13
2023-05-12T17:54:33.983Z,40.49
2023-05-12T17:57:39.074Z,40.95
2023-05-12T18:00:41.632Z,41.17
2023-05-12T18:03:44.226Z,41.26
2023-05-12T18:06:50.040Z,41.41
2023-05-12T18:09:53.960Z,42.11
2023-05-12T18:12:56.471Z,42.26
2023-05-12T18:15:58.979Z,42.82
2023-05-12T18:19:01.816Z,42.95
2023-05-12T18:22:04.461Z,43.00
2023-05-12T18:25:10.054Z,44.27
2023-05-12T18:28:12.535Z,44.25
2023-05-12T18:31:16.339Z,44.92
2023-05-12T18:34:19.299Z,46.29
2023-05-12T18:37:21.832Z,46.50
2023-05-12T18:40:25.773Z,47.39
2023-05-12T18:43:28.496Z,47.72
2023-05-12T18:46:31.069Z,48.42
2023-05-12T18:49:33.699Z,49.04
2023-05-12T18:52:36.392Z,50.59
2023-05-12T18:55:40.363Z,51.75
2023-05-12T18:58:42.852Z,53.31
2023-05-12T19:01:45.557Z,55.07
2023-05-12T19:04:48.430Z,56.65
2023-05-12T19:07:51.252Z,58.48
2023-05-12T19:10:55.232Z,59.10
2023-05-12T19:13:58.280Z,59.80
2023-05-12T19:17:00.853Z,60.03
2023-05-12T19:20:03.362Z,61.20
2023-05-12T19:23:06.037Z,61.61
2023-05-12T19:26:10.992Z,62.70
2023-05-12T20:09:51.824Z,66.90
